createdAt,value
2019-03-24T00:00:44.332Z,18.67
2019-03-24T00:03:11.653Z,18.10
2019-03-24T00:05:39.077Z,18.50
2019-03-24T00:08:06.396Z,20.30
2019-03-24T00:10:33.675Z,18.97
2019-03-24T00:13:01.288Z,19.87
2019-03-24T00:15:28.710Z,19.33
2019-03-24T00:17:56.015Z,19.00
2019-03-24T00:20:23.298Z,20.50
2019-03-24T00:22:50.730Z,19.30
2019-03-24T00:25:18.056Z,19.27
2019-03-24T00:27:45.400Z,19.83
2019-03-24T00:30:12.899Z,19.47
2019-03-24T00:32:40.230Z,18.93
2019-03-24T00:35:07.623Z,19.00
2019-03-24T00:37:45.043Z,19.30
2019-03-24T00:40:12.771Z,20.17
2019-03-24T00:42:40.360Z,20.40
2019-03-24T00:45:08.596Z,20.27
2019-03-24T00:47:35.892Z,19.60
2019-03-24T00:50:03.692Z,19.60
2019-03-24T00:52:31.218Z,21.40
2019-03-24T00:54:58.528Z,23.03
2019-03-24T00:57:25.952Z,23.10
2019-03-24T00:59:53.480Z,22.80
2019-03-24T01:02:21.064Z,21.73
2019-03-24T01:04:48.340Z,21.50
2019-03-24T01:07:15.760Z,21.20
2019-03-24T01:09:43.188Z,23.00
2019-03-24T01:12:10.928Z,24.13
2019-03-24T01:14:38.349Z,24.37
2019-03-24T01:17:05.852Z,22.03
2019-03-24T01:19:33.181Z,21.40
2019-03-24T01:22:00.560Z,17.83
2019-03-24T01:24:28.025Z,18.00
2019-03-24T01:26:55.454Z,18.07
2019-03-24T01:29:22.975Z,18.90
2019-03-24T01:31:50.396Z,18.57
2019-03-24T01:34:17.803Z,18.70
2019-03-24T01:36:45.481Z,20.80
2019-03-24T01:39:13.037Z,24.47
2019-03-24T01:41:40.364Z,24.97
2019-03-24T01:44:07.810Z,25.10
2019-03-24T01:46:35.233Z,26.10
2019-03-24T01:49:02.768Z,24.23
2019-03-24T01:51:30.176Z,23.33
2019-03-24T01:53:57.607Z,23.00
2019-03-24T01:56:25.050Z,20.60
2019-03-24T01:58:52.417Z,17.60
2019-03-24T02:01:19.748Z,22.63
2019-03-24T02:03:47.740Z,25.53
2019-03-24T02:06:15.156Z,22.67
2019-03-24T02:08:42.633Z,22.90
2019-03-24T02:11:10.181Z,25.17
2019-03-24T02:13:37.544Z,23.93
2019-03-24T02:16:09.369Z,22.07
2019-03-24T02:18:34.384Z,20.57
2019-03-24T02:21:01.925Z,19.70
2019-03-24T02:23:29.385Z,19.27
2019-03-24T02:25:57.293Z,19.07
2019-03-24T02:28:24.716Z,21.47
2019-03-24T02:30:52.147Z,17.70
2019-03-24T02:33:19.560Z,18.80
2019-03-24T02:35:47.013Z,20.43
2019-03-24T02:38:14.537Z,21.27
2019-03-24T02:40:41.979Z,21.70
2019-03-24T02:43:09.516Z,24.30
2019-03-24T02:45:37.317Z,22.73
2019-03-24T02:48:05.064Z,23.20
2019-03-24T02:50:32.489Z,23.60
2019-03-24T02:52:59.825Z,25.63
2019-03-24T02:55:27.256Z,25.73
2019-03-24T02:57:54.874Z,25.20
2019-03-24T03:00:22.321Z,23.10
2019-03-24T03:02:49.938Z,24.90
2019-03-24T03:05:17.366Z,26.10
2019-03-24T03:07:44.768Z,26.80
2019-03-24T03:10:12.905Z,25.10
2019-03-24T03:12:40.308Z,26.03
2019-03-24T03:15:08.393Z,24.27
2019-03-24T03:17:36.001Z,23.70
2019-03-24T03:20:04.403Z,22.73
2019-03-24T03:22:31.969Z,23.07
2019-03-24T03:24:59.297Z,22.07
2019-03-24T03:27:26.718Z,25.67
2019-03-24T03:29:54.241Z,24.37
2019-03-24T03:32:21.697Z,24.50
2019-03-24T03:34:49.093Z,24.50
2019-03-24T03:37:16.687Z,23.73
2019-03-24T03:39:44.090Z,21.73
2019-03-24T03:42:11.602Z,22.93
2019-03-24T03:44:39.074Z,22.57
2019-03-24T03:47:06.738Z,23.67
2019-03-24T03:49:34.056Z,24.37
2019-03-24T03:52:01.665Z,24.53
2019-03-24T03:54:30.194Z,23.67
2019-03-24T03:56:58.344Z,22.40
2019-03-24T03:59:26.681Z,21.63
2019-03-24T04:01:54.484Z,21.77
2019-03-24T04:04:22.641Z,25.40
2019-03-24T04:06:52.056Z,23.37
2019-03-24T04:09:20.857Z,24.13
2019-03-24T04:11:49.097Z,26.07
2019-03-24T04:14:16.745Z,25.57
2019-03-24T04:16:44.351Z,26.90
2019-03-24T04:19:11.821Z,26.37
2019-03-24T04:21:39.358Z,26.47
2019-03-24T04:24:06.845Z,25.50
2019-03-24T04:26:34.680Z,25.93
2019-03-24T04:29:02.226Z,27.90
2019-03-24T04:31:29.842Z,26.67
2019-03-24T04:33:57.641Z,27.63
2019-03-24T04:36:25.198Z,24.83
2019-03-24T04:38:52.634Z,25.17
2019-03-24T04:41:20.580Z,24.30
2019-03-24T04:43:48.092Z,26.33
2019-03-24T04:46:15.680Z,27.50
2019-03-24T04:48:43.080Z,27.83
2019-03-24T04:51:10.388Z,28.37
2019-03-24T04:53:37.808Z,24.70
2019-03-24T04:56:05.600Z,24.70
2019-03-24T04:58:33.047Z,24.60
2019-03-24T05:01:00.907Z,24.87
2019-03-24T05:03:28.682Z,24.40
2019-03-24T05:05:56.382Z,23.03
2019-03-24T05:08:24.712Z,21.87
2019-03-24T05:10:52.139Z,20.40
2019-03-24T05:13:19.493Z,18.73
2019-03-24T05:15:46.784Z,19.03
2019-03-24T05:18:14.228Z,18.83
2019-03-24T05:20:41.648Z,19.63
2019-03-24T05:23:09.089Z,18.40
2019-03-24T05:25:37.169Z,19.23
2019-03-24T05:28:04.954Z,20.47
2019-03-24T05:30:32.369Z,19.07
2019-03-24T05:33:00.006Z,19.67
2019-03-24T05:35:27.564Z,19.40
2019-03-24T05:37:55.041Z,19.77
2019-03-24T05:40:22.572Z,19.60
2019-03-24T05:42:49.918Z,18.80
2019-03-24T05:45:17.339Z,18.77
2019-03-24T05:47:44.828Z,18.10
2019-03-24T05:50:12.361Z,18.43
2019-03-24T05:52:39.672Z,16.47
2019-03-24T05:55:07.234Z,16.73
2019-03-24T05:57:34.757Z,16.93
2019-03-24T06:00:02.442Z,17.10
2019-03-24T06:02:30.123Z,16.70
2019-03-24T06:04:57.443Z,15.87
2019-03-24T06:07:25.060Z,16.03
2019-03-24T06:09:52.477Z,15.97
2019-03-24T06:12:19.803Z,15.23
2019-03-24T06:14:47.146Z,14.93
2019-03-24T06:17:14.746Z,15.77
2019-03-24T06:19:42.072Z,15.00
2019-03-24T06:22:09.665Z,15.87
2019-03-24T06:24:36.983Z,16.27
2019-03-24T06:27:04.771Z,16.27
2019-03-24T06:29:32.176Z,16.53
2019-03-24T06:32:00.060Z,17.23
2019-03-24T06:34:27.418Z,16.47
2019-03-24T06:37:12.043Z,15.37
2019-03-24T06:39:39.695Z,16.47
2019-03-24T06:42:07.118Z,16.17
2019-03-24T06:44:34.656Z,16.43
2019-03-24T06:47:02.269Z,16.33
2019-03-24T06:49:30.254Z,16.50
2019-03-24T06:51:57.627Z,17.90
2019-03-24T06:54:25.588Z,18.20
2019-03-24T06:56:53.048Z,18.03
2019-03-24T06:59:20.540Z,19.40
2019-03-24T07:01:48.479Z,18.70
2019-03-24T07:04:16.306Z,19.00
2019-03-24T07:06:44.086Z,18.90
2019-03-24T07:09:11.535Z,19.53
2019-03-24T07:11:39.187Z,19.70
2019-03-24T07:14:06.960Z,20.83
2019-03-24T07:16:34.704Z,21.87
2019-03-24T07:19:02.156Z,22.30
2019-03-24T07:21:29.498Z,22.75
2019-03-24T07:24:00.536Z,23.73
2019-03-24T07:26:27.835Z,23.38
2019-03-24T07:28:55.343Z,24.40
2019-03-24T07:31:23.364Z,26.15
2019-03-24T07:33:51.446Z,26.87
2019-03-24T07:36:18.908Z,27.02
2019-03-24T07:38:46.484Z,28.25
2019-03-24T07:41:14.738Z,27.13
2019-03-24T07:43:42.296Z,27.95
2019-03-24T07:46:10.035Z,28.62
2019-03-24T07:48:37.789Z,28.55
2019-03-24T07:51:05.849Z,29.07
2019-03-24T07:53:35.316Z,29.32
2019-03-24T07:56:03.754Z,29.65
2019-03-24T07:58:31.840Z,29.15
2019-03-24T08:00:59.635Z,29.90
2019-03-24T08:03:29.169Z,30.75
2019-03-24T08:05:56.480Z,31.35
2019-03-24T08:08:24.068Z,31.90
2019-03-24T08:10:51.836Z,32.17
2019-03-24T08:13:19.968Z,32.30
2019-03-24T08:15:47.638Z,36.30
2019-03-24T08:18:15.182Z,35.00
2019-03-24T08:20:42.562Z,36.68
2019-03-24T08:23:09.974Z,36.08
2019-03-24T08:25:37.438Z,36.00
2019-03-24T08:28:05.094Z,40.08
2019-03-24T08:30:37.035Z,39.85
2019-03-24T08:33:05.272Z,40.90
2019-03-24T08:35:32.843Z,43.52
2019-03-24T08:38:00.536Z,42.58
2019-03-24T08:40:28.124Z,43.90
2019-03-24T08:42:55.694Z,43.70
2019-03-24T08:45:26.752Z,44.45
2019-03-24T08:47:54.975Z,44.63
2019-03-24T08:50:25.581Z,45.88
2019-03-24T08:52:54.432Z,45.25
2019-03-24T08:55:22.069Z,45.20
2019-03-24T08:57:58.338Z,44.58
2019-03-24T09:00:30.447Z,46.18
2019-03-24T09:02:55.633Z,45.55
2019-03-24T09:05:24.636Z,45.65
2019-03-24T09:07:52.282Z,45.43
2019-03-24T09:10:20.400Z,45.83
2019-03-24T09:12:47.830Z,45.43
2019-03-24T09:15:15.662Z,45.45
2019-03-24T09:17:43.237Z,45.08
2019-03-24T09:20:11.362Z,44.38
2019-03-24T09:22:39.682Z,45.43
2019-03-24T09:25:07.575Z,45.67
2019-03-24T09:27:35.403Z,46.68
2019-03-24T09:30:03.768Z,45.60
2019-03-24T09:32:31.964Z,43.13
2019-03-24T09:35:04.440Z,44.67
2019-03-24T09:37:32.984Z,44.45
2019-03-24T09:40:00.492Z,44.63
2019-03-24T09:42:27.908Z,45.30
2019-03-24T09:44:55.599Z,44.70
2019-03-24T09:47:23.029Z,44.75
2019-03-24T09:49:50.368Z,44.73
2019-03-24T09:52:17.764Z,44.58
2019-03-24T09:54:45.221Z,44.38
2019-03-24T09:57:12.942Z,43.13
2019-03-24T09:59:40.388Z,43.85
2019-03-24T10:02:08.293Z,44.10
2019-03-24T10:04:35.752Z,43.98
2019-03-24T10:07:03.004Z,44.35
2019-03-24T10:09:30.534Z,44.98
2019-03-24T10:11:58.017Z,43.63
2019-03-24T10:14:25.369Z,45.17
2019-03-24T10:16:52.868Z,46.63
2019-03-24T10:19:20.568Z,46.45
2019-03-24T10:21:48.168Z,45.45
2019-03-24T10:24:15.521Z,42.95
2019-03-24T10:26:42.849Z,43.73
2019-03-24T10:29:10.180Z,42.43
2019-03-24T10:31:37.708Z,43.63
2019-03-24T10:34:05.145Z,43.65
2019-03-24T10:36:32.480Z,44.03
2019-03-24T10:38:59.800Z,45.15
2019-03-24T10:41:27.148Z,45.15
2019-03-24T10:43:54.612Z,44.10
2019-03-24T10:46:22.026Z,44.60
2019-03-24T10:48:49.912Z,43.28
2019-03-24T10:51:17.305Z,43.48
2019-03-24T10:53:45.142Z,45.17
2019-03-24T10:56:12.618Z,45.28
2019-03-24T10:58:39.936Z,44.90
2019-03-24T11:01:07.580Z,45.03
2019-03-24T11:03:34.988Z,44.13
2019-03-24T11:06:02.521Z,42.67
2019-03-24T11:08:29.833Z,43.60
2019-03-24T11:11:00.353Z,44.33
2019-03-24T11:13:28.001Z,42.98
2019-03-24T11:15:55.549Z,43.40
2019-03-24T11:18:23.712Z,43.30
2019-03-24T11:20:51.034Z,43.38
2019-03-24T11:23:18.741Z,45.40
2019-03-24T11:25:46.176Z,43.70
2019-03-24T11:28:13.736Z,43.48
2019-03-24T11:30:41.155Z,42.38
2019-03-24T11:33:08.587Z,42.05
2019-03-24T11:35:36.258Z,42.53
2019-03-24T11:38:04.032Z,43.23
2019-03-24T11:40:31.831Z,40.67
2019-03-24T11:42:59.145Z,42.48
2019-03-24T11:45:26.716Z,41.83
2019-03-24T11:47:54.020Z,43.78
2019-03-24T11:50:21.460Z,42.75
2019-03-24T11:52:48.869Z,42.17
2019-03-24T11:55:16.495Z,43.63
2019-03-24T11:57:44.117Z,40.10
2019-03-24T12:00:12.379Z,40.75
2019-03-24T12:02:39.966Z,41.20
2019-03-24T12:05:07.591Z,42.00
2019-03-24T12:07:35.269Z,42.40
2019-03-24T12:10:03.629Z,41.10
2019-03-24T12:12:31.052Z,41.77
2019-03-24T12:14:58.749Z,42.30
2019-03-24T12:17:26.363Z,42.85
2019-03-24T12:19:57.114Z,42.25
2019-03-24T12:22:24.232Z,42.98
2019-03-24T12:24:51.725Z,42.60
2019-03-24T12:27:19.177Z,42.73
2019-03-24T12:29:46.727Z,44.20
2019-03-24T12:32:15.613Z,42.05
2019-03-24T12:34:43.348Z,40.73
2019-03-24T12:37:10.952Z,41.30
2019-03-24T12:39:38.468Z,41.95
2019-03-24T12:42:05.978Z,41.35
2019-03-24T12:44:33.547Z,40.25
2019-03-24T12:47:01.338Z,40.75
2019-03-24T12:49:28.676Z,41.83
2019-03-24T12:51:56.025Z,43.65
2019-03-24T12:54:25.441Z,42.00
2019-03-24T12:56:52.673Z,42.53
2019-03-24T12:59:20.240Z,42.48
2019-03-24T13:01:47.833Z,41.10
2019-03-24T13:04:15.376Z,40.60
2019-03-24T13:06:43.075Z,40.28
2019-03-24T13:09:10.632Z,39.38
2019-03-24T13:11:38.072Z,40.98
2019-03-24T13:14:05.878Z,40.45
2019-03-24T13:16:33.529Z,41.25
2019-03-24T13:19:01.069Z,39.20
2019-03-24T13:21:28.412Z,40.78
2019-03-24T13:23:56.698Z,39.88
2019-03-24T13:26:24.161Z,40.83
2019-03-24T13:28:51.689Z,38.98
2019-03-24T13:31:19.201Z,41.58
2019-03-24T13:33:46.834Z,40.67
2019-03-24T13:36:15.270Z,41.33
2019-03-24T13:38:42.836Z,38.90
2019-03-24T13:41:10.266Z,39.63
2019-03-24T13:43:37.707Z,40.23
2019-03-24T13:46:05.263Z,41.02
2019-03-24T13:48:32.829Z,41.58
2019-03-24T13:51:00.445Z,43.60
2019-03-24T13:53:27.877Z,41.95
2019-03-24T13:55:55.305Z,43.75
2019-03-24T13:58:22.665Z,45.43
2019-03-24T14:00:50.246Z,45.92
2019-03-24T14:03:17.824Z,43.42
2019-03-24T14:05:45.672Z,42.05
2019-03-24T14:08:13.188Z,41.90
2019-03-24T14:10:40.704Z,40.00
2019-03-24T14:13:08.145Z,40.90
2019-03-24T14:15:35.478Z,41.65
2019-03-24T14:18:03.042Z,42.70
2019-03-24T14:20:42.282Z,40.78
2019-03-24T14:22:59.990Z,41.02
2019-03-24T14:25:27.558Z,39.98
2019-03-24T14:27:55.284Z,40.48
2019-03-24T14:30:47.780Z,39.80
2019-03-24T14:33:15.428Z,41.65
2019-03-24T14:35:42.954Z,43.40
2019-03-24T14:38:10.781Z,42.17
2019-03-24T14:40:38.308Z,41.15
2019-03-24T14:43:06.004Z,42.95
2019-03-24T14:45:33.505Z,40.58
2019-03-24T14:48:03.457Z,39.55
2019-03-24T14:50:31.066Z,39.98
2019-03-24T14:52:59.012Z,37.90
2019-03-24T14:55:26.533Z,41.08
2019-03-24T14:57:54.034Z,39.15
2019-03-24T15:00:33.132Z,39.45
2019-03-24T15:03:00.651Z,39.45
2019-03-24T15:05:28.227Z,41.10
2019-03-24T15:07:56.029Z,40.23
2019-03-24T15:10:23.737Z,41.28
2019-03-24T15:12:51.625Z,41.23
2019-03-24T15:15:19.354Z,44.18
2019-03-24T15:17:46.957Z,41.83
2019-03-24T15:20:17.338Z,41.85
2019-03-24T15:22:44.798Z,42.67
2019-03-24T15:25:12.493Z,40.15
2019-03-24T15:27:40.042Z,39.33
2019-03-24T15:30:07.981Z,39.55
2019-03-24T15:32:35.828Z,42.98
2019-03-24T15:35:03.586Z,41.30
2019-03-24T15:37:31.335Z,40.92
2019-03-24T15:39:58.852Z,41.23
2019-03-24T15:42:26.458Z,41.83
2019-03-24T15:44:53.844Z,41.25
2019-03-24T15:47:21.701Z,41.55
2019-03-24T15:49:49.216Z,40.58
2019-03-24T15:52:16.684Z,41.10
2019-03-24T15:54:44.569Z,40.92
2019-03-24T15:57:12.326Z,41.20
2019-03-24T15:59:41.828Z,41.05
2019-03-24T16:02:09.277Z,39.85
2019-03-24T16:04:36.973Z,39.50
2019-03-24T16:07:04.681Z,38.98
2019-03-24T16:09:32.412Z,37.60
2019-03-24T16:11:59.833Z,37.25
2019-03-24T16:14:27.312Z,37.42
2019-03-24T16:16:54.772Z,39.48
2019-03-24T16:19:22.346Z,37.45
2019-03-24T16:21:49.731Z,36.40
2019-03-24T16:24:17.252Z,35.92
2019-03-24T16:26:44.973Z,36.08
2019-03-24T16:29:12.633Z,36.60
2019-03-24T16:31:40.214Z,37.13
2019-03-24T16:34:07.778Z,36.48
2019-03-24T16:36:35.359Z,35.50
2019-03-24T16:39:04.654Z,36.48
2019-03-24T16:41:32.257Z,35.55
2019-03-24T16:43:59.848Z,37.53
2019-03-24T16:46:27.197Z,38.33
2019-03-24T16:48:54.544Z,39.08
2019-03-24T16:51:22.240Z,36.25
2019-03-24T16:53:49.793Z,35.15
2019-03-24T16:56:17.342Z,36.70
2019-03-24T16:58:44.813Z,38.75
2019-03-24T17:01:12.385Z,35.70
2019-03-24T17:03:40.084Z,35.70
2019-03-24T17:06:10.039Z,37.88
2019-03-24T17:08:37.125Z,37.00
2019-03-24T17:11:04.967Z,38.23
2019-03-24T17:13:32.323Z,38.30
2019-03-24T17:15:59.964Z,38.65
2019-03-24T17:18:27.691Z,37.78
2019-03-24T17:20:55.295Z,39.10
2019-03-24T17:23:22.937Z,37.95
2019-03-24T17:25:50.469Z,38.00
2019-03-24T17:28:17.956Z,37.95
2019-03-24T17:30:45.716Z,36.58
2019-03-24T17:33:13.259Z,37.20
2019-03-24T17:35:40.603Z,36.15
2019-03-24T17:38:07.913Z,38.67
2019-03-24T17:40:39.036Z,37.28
2019-03-24T17:43:05.415Z,36.20
2019-03-24T17:45:33.192Z,39.23
2019-03-24T17:48:00.628Z,40.48
2019-03-24T17:50:28.379Z,39.63
2019-03-24T17:52:55.766Z,37.67
2019-03-24T17:55:27.915Z,37.53
2019-03-24T17:57:53.151Z,52.48
2019-03-24T18:00:34.203Z,40.85
2019-03-24T18:03:02.133Z,42.13
2019-03-24T18:05:30.246Z,42.48
2019-03-24T18:07:58.364Z,41.70
2019-03-24T18:10:25.953Z,42.80
2019-03-24T18:12:56.538Z,42.80
2019-03-24T18:15:24.153Z,39.18
2019-03-24T18:17:51.730Z,39.15
2019-03-24T18:20:28.689Z,38.50
2019-03-24T18:22:56.039Z,38.92
2019-03-24T18:25:24.621Z,39.13
2019-03-24T18:27:52.157Z,40.90
2019-03-24T18:30:20.070Z,40.50
2019-03-24T18:32:47.695Z,38.78
2019-03-24T18:35:15.348Z,41.07
2019-03-24T18:37:42.888Z,41.58
2019-03-24T18:40:12.146Z,42.43
2019-03-24T18:42:39.700Z,41.65
2019-03-24T18:45:09.017Z,41.15
2019-03-24T18:47:39.672Z,40.60
2019-03-24T18:50:07.732Z,40.92
2019-03-24T18:52:35.643Z,40.73
2019-03-24T18:55:03.465Z,40.15
2019-03-24T18:57:30.947Z,39.38
2019-03-24T18:59:58.784Z,40.05
2019-03-24T19:02:26.341Z,40.70
2019-03-24T19:04:53.766Z,38.83
2019-03-24T19:07:21.385Z,38.17
2019-03-24T19:09:49.184Z,39.50
2019-03-24T19:12:16.629Z,38.90
2019-03-24T19:14:44.159Z,37.70
2019-03-24T19:17:11.690Z,36.05
2019-03-24T19:19:39.176Z,36.93
2019-03-24T19:22:06.711Z,37.40
2019-03-24T19:24:34.284Z,36.40
2019-03-24T19:27:01.916Z,35.35
2019-03-24T19:29:29.575Z,35.93
2019-03-24T19:31:57.342Z,36.68
2019-03-24T19:34:24.882Z,38.30
2019-03-24T19:36:52.797Z,37.53
2019-03-24T19:39:20.362Z,38.30
2019-03-24T19:41:47.949Z,36.00
2019-03-24T19:44:15.624Z,36.23
2019-03-24T19:46:43.244Z,36.60
2019-03-24T19:49:10.652Z,35.13
2019-03-24T19:51:38.594Z,32.90
2019-03-24T19:54:06.336Z,32.23
2019-03-24T19:56:33.829Z,31.77
2019-03-24T19:59:01.771Z,30.87
2019-03-24T20:01:29.367Z,31.23
2019-03-24T20:03:58.157Z,31.45
2019-03-24T20:06:25.628Z,32.33
2019-03-24T20:08:53.213Z,29.47
2019-03-24T20:11:20.817Z,28.60
2019-03-24T20:13:48.216Z,30.17
2019-03-24T20:16:16.046Z,29.27
2019-03-24T20:18:43.918Z,28.00
2019-03-24T20:21:11.537Z,29.02
2019-03-24T20:23:39.481Z,29.10
2019-03-24T20:26:07.016Z,28.70
2019-03-24T20:28:34.443Z,29.42
2019-03-24T20:31:02.031Z,30.23
2019-03-24T20:33:29.480Z,28.83
2019-03-24T20:35:57.092Z,27.90
2019-03-24T20:38:24.905Z,28.43
2019-03-24T20:40:52.405Z,28.00
2019-03-24T20:43:20.077Z,27.60
2019-03-24T20:45:47.909Z,26.90
2019-03-24T20:48:15.121Z,25.73
2019-03-24T20:50:42.384Z,24.90
2019-03-24T20:53:18.080Z,24.43
2019-03-24T20:55:38.949Z,25.40
2019-03-24T20:58:06.160Z,25.90
2019-03-24T21:00:36.834Z,25.60
2019-03-24T21:03:04.580Z,25.97
2019-03-24T21:05:32.189Z,26.20
2019-03-24T21:07:59.418Z,26.23
2019-03-24T21:10:26.704Z,25.57
2019-03-24T21:12:54.268Z,26.53
2019-03-24T21:15:21.582Z,26.03
2019-03-24T21:17:48.872Z,25.77
2019-03-24T21:20:16.257Z,26.00
2019-03-24T21:22:43.522Z,25.23
2019-03-24T21:25:11.187Z,24.87
2019-03-24T21:27:38.719Z,24.60
2019-03-24T21:30:08.028Z,27.00
2019-03-24T21:32:35.375Z,25.17
2019-03-24T21:35:03.032Z,26.17
2019-03-24T21:37:30.428Z,25.70
2019-03-24T21:39:57.700Z,25.30
2019-03-24T21:42:25.137Z,26.27
2019-03-24T21:44:52.625Z,25.27
2019-03-24T21:47:20.555Z,26.50
2019-03-24T21:49:48.608Z,26.57
2019-03-24T21:52:16.148Z,25.73
2019-03-24T21:54:43.425Z,25.40
2019-03-24T21:57:10.939Z,25.80
2019-03-24T21:59:38.204Z,26.83
2019-03-24T22:02:05.555Z,26.27
2019-03-24T22:04:32.869Z,25.53
2019-03-24T22:07:00.139Z,24.87
2019-03-24T22:09:27.356Z,27.07
2019-03-24T22:11:54.890Z,26.75
2019-03-24T22:14:22.176Z,27.43
2019-03-24T22:16:49.770Z,26.10
2019-03-24T22:19:17.287Z,27.77
2019-03-24T22:21:44.637Z,26.37
2019-03-24T22:24:11.969Z,26.27
2019-03-24T22:26:39.300Z,25.75
2019-03-24T22:29:06.609Z,25.17
2019-03-24T22:31:34.001Z,26.68
2019-03-24T22:34:01.293Z,26.63
2019-03-24T22:36:28.582Z,25.10
2019-03-24T22:38:55.883Z,24.73
2019-03-24T22:41:23.303Z,26.10
2019-03-24T22:43:50.588Z,26.43
2019-03-24T22:46:17.861Z,25.17
2019-03-24T22:48:45.177Z,25.43
2019-03-24T22:51:12.440Z,25.70
2019-03-24T22:53:39.760Z,25.97
2019-03-24T22:56:07.024Z,24.33
2019-03-24T22:58:34.312Z,25.63
2019-03-24T23:01:01.683Z,25.90
2019-03-24T23:03:28.974Z,25.90
2019-03-24T23:05:56.242Z,25.73
2019-03-24T23:08:23.537Z,25.35
2019-03-24T23:10:50.792Z,26.87
2019-03-24T23:13:18.652Z,25.60
2019-03-24T23:15:45.945Z,25.80
2019-03-24T23:18:13.130Z,26.68
2019-03-24T23:20:40.433Z,26.27
2019-03-24T23:23:08.014Z,25.20
2019-03-24T23:25:35.876Z,26.87
2019-03-24T23:28:03.375Z,26.43
2019-03-24T23:30:30.552Z,25.15
2019-03-24T23:32:58.112Z,25.57
2019-03-24T23:35:25.387Z,25.43
2019-03-24T23:37:53.100Z,22.73
2019-03-24T23:40:20.360Z,22.13
2019-03-24T23:42:47.916Z,22.67
2019-03-24T23:45:15.188Z,20.97
2019-03-24T23:47:42.473Z,19.30
2019-03-24T23:50:09.971Z,20.27
2019-03-24T23:52:37.244Z,19.60
2019-03-24T23:55:04.667Z,18.87
2019-03-24T23:57:32.066Z,18.90
2019-03-24T23:59:59.378Z,18.40
